createdAt,value
2024-04-13T00:00:44.259Z,0.00
2024-04-13T00:01:44.229Z,0.00
2024-04-13T00:02:44.274Z,0.00
2024-04-13T00:03:44.431Z,0.00
2024-04-13T00:04:44.249Z,0.00
2024-04-13T00:05:44.207Z,0.00
2024-04-13T00:06:45.700Z,0.00
2024-04-13T00:07:44.146Z,0.00
2024-04-13T00:08:44.136Z,0.00
2024-04-13T00:09:44.121Z,0.00
2024-04-13T00:10:44.159Z,0.00
2024-04-13T00:11:44.116Z,0.00
2024-04-13T00:12:44.087Z,0.00
2024-04-13T00:13:44.085Z,0.00
2024-04-13T00:14:44.065Z,0.00
2024-04-13T00:15:44.052Z,0.00
2024-04-13T00:16:44.076Z,0.00
2024-04-13T00:17:44.069Z,0.00
2024-04-13T00:18:44.298Z,0.00
2024-04-13T00:19:44.008Z,0.00
2024-04-13T00:20:43.990Z,0.00
2024-04-13T00:21:43.994Z,0.00
2024-04-13T00:22:43.967Z,0.00
2024-04-13T00:23:43.972Z,0.00
2024-04-13T00:24:43.988Z,0.00
2024-04-13T00:25:43.950Z,0.00
2024-04-13T00:26:43.945Z,0.00
2024-04-13T00:27:43.921Z,0.00
2024-04-13T00:28:43.897Z,0.00
2024-04-13T00:29:43.895Z,0.00
2024-04-13T00:30:43.920Z,0.00
2024-04-13T00:31:43.990Z,0.00
2024-04-13T00:32:43.860Z,0.00
2024-04-13T00:33:43.844Z,0.00
2024-04-13T00:34:43.827Z,0.00
2024-04-13T00:35:43.813Z,0.00
2024-04-13T00:36:43.916Z,0.00
2024-04-13T00:37:43.815Z,0.00
2024-04-13T00:38:43.790Z,0.00
2024-04-13T00:39:43.820Z,0.00
2024-04-13T00:40:43.756Z,0.00
2024-04-13T00:41:43.777Z,0.00
2024-04-13T00:42:43.746Z,0.00
2024-04-13T00:43:43.724Z,0.00
2024-04-13T00:44:43.838Z,0.00
2024-04-13T00:45:43.842Z,0.00
2024-04-13T00:46:43.738Z,0.00
2024-04-13T00:47:43.767Z,0.00
2024-04-13T00:48:43.995Z,0.00
2024-04-13T00:49:43.649Z,0.00
2024-04-13T00:50:43.636Z,0.00
2024-04-13T00:51:43.632Z,0.00
2024-04-13T00:52:43.612Z,0.00
2024-04-13T00:53:43.600Z,0.00
2024-04-13T00:54:43.585Z,0.00
2024-04-13T00:55:43.577Z,0.00
2024-04-13T00:56:43.585Z,0.00
2024-04-13T00:57:43.549Z,0.00
2024-04-13T00:58:43.548Z,0.00
2024-04-13T00:59:43.531Z,0.00
2024-04-13T01:00:43.575Z,0.00
2024-04-13T01:01:43.509Z,0.00
2024-04-13T01:02:43.574Z,0.00
2024-04-13T01:03:43.607Z,0.00
2024-04-13T01:04:43.464Z,0.00
2024-04-13T01:05:43.480Z,0.00
2024-04-13T01:06:43.533Z,0.00
2024-04-13T01:07:43.441Z,0.00
2024-04-13T01:08:43.417Z,0.00
2024-04-13T01:09:43.406Z,0.00
2024-04-13T01:10:43.397Z,0.00
2024-04-13T01:11:43.480Z,0.00
2024-04-13T01:12:43.368Z,0.00
2024-04-13T01:13:43.362Z,0.00
2024-04-13T01:14:43.366Z,0.00
2024-04-13T01:15:43.332Z,0.00
2024-04-13T01:16:43.322Z,0.00
2024-04-13T01:17:43.432Z,0.00
2024-04-13T01:18:43.341Z,0.00
2024-04-13T01:19:43.288Z,0.00
2024-04-13T01:20:43.275Z,0.00
2024-04-13T01:21:43.289Z,0.00
2024-04-13T01:22:43.315Z,0.00
2024-04-13T01:23:43.241Z,0.00
2024-04-13T01:24:43.270Z,0.00
2024-04-13T01:25:43.220Z,0.00
2024-04-13T01:26:43.203Z,0.00
2024-04-13T01:27:43.184Z,0.00
2024-04-13T01:28:43.187Z,0.00
2024-04-13T01:29:43.165Z,0.00
2024-04-13T01:30:43.205Z,0.00
2024-04-13T01:31:43.147Z,0.00
2024-04-13T01:32:43.191Z,0.00
2024-04-13T01:33:43.187Z,0.00
2024-04-13T01:34:43.103Z,0.00
2024-04-13T01:35:43.087Z,0.00
2024-04-13T01:36:43.074Z,0.00
2024-04-13T01:37:43.070Z,0.00
2024-04-13T01:38:43.048Z,0.00
2024-04-13T01:39:43.079Z,0.00
2024-04-13T01:40:43.023Z,0.00
2024-04-13T01:41:43.029Z,0.00
2024-04-13T01:42:42.997Z,0.00
2024-04-13T01:43:42.996Z,0.00
2024-04-13T01:44:42.974Z,0.00
2024-04-13T01:45:42.980Z,0.00
2024-04-13T01:46:42.967Z,0.00
2024-04-13T01:47:43.090Z,0.00
2024-04-13T01:48:42.988Z,0.00
2024-04-13T01:49:42.916Z,0.00
2024-04-13T01:50:42.899Z,0.00
2024-04-13T01:51:42.894Z,0.00
2024-04-13T01:52:42.884Z,0.00
2024-04-13T01:53:42.870Z,0.00
2024-04-13T01:54:42.865Z,0.00
2024-04-13T01:55:42.854Z,0.00
2024-04-13T01:56:42.828Z,0.00
2024-04-13T01:57:42.839Z,0.00
2024-04-13T01:58:42.809Z,0.00
2024-04-13T01:59:42.789Z,0.00
2024-04-13T02:00:42.938Z,0.00
2024-04-13T02:01:42.774Z,0.00
2024-04-13T02:02:42.764Z,0.00
2024-04-13T02:03:42.830Z,0.00
2024-04-13T02:04:42.725Z,0.00
2024-04-13T02:05:42.716Z,0.00
2024-04-13T02:06:42.789Z,0.00
2024-04-13T02:07:42.689Z,0.00
2024-04-13T02:08:42.690Z,0.00
2024-04-13T02:09:42.678Z,0.00
2024-04-13T02:10:42.680Z,0.00
2024-04-13T02:11:42.642Z,0.00
2024-04-13T02:12:42.642Z,0.00
2024-04-13T02:13:42.637Z,0.00
2024-04-13T02:14:42.617Z,0.00
2024-04-13T02:15:42.631Z,0.00
2024-04-13T02:16:42.596Z,0.00
2024-04-13T02:17:42.622Z,0.00
2024-04-13T02:18:42.649Z,0.00
2024-04-13T02:19:42.559Z,0.00
2024-04-13T02:20:42.526Z,0.00
2024-04-13T02:21:42.635Z,0.00
2024-04-13T02:22:42.501Z,0.00
2024-04-13T02:23:42.495Z,0.00
2024-04-13T02:24:42.510Z,0.00
2024-04-13T02:25:42.469Z,0.00
2024-04-13T02:26:42.463Z,0.00
2024-04-13T02:27:42.458Z,0.00
2024-04-13T02:28:42.426Z,0.00
2024-04-13T02:29:42.414Z,0.00
2024-04-13T02:30:42.429Z,0.00
2024-04-13T02:31:42.394Z,0.00
2024-04-13T02:32:42.419Z,0.00
2024-04-13T02:33:42.401Z,0.00
2024-04-13T02:34:42.375Z,0.00
2024-04-13T02:35:42.342Z,0.00
2024-04-13T02:36:42.412Z,0.00
2024-04-13T02:37:42.314Z,0.00
2024-04-13T02:38:42.295Z,0.00
2024-04-13T02:39:42.301Z,0.00
2024-04-13T02:40:42.281Z,0.00
2024-04-13T02:41:42.262Z,0.00
2024-04-13T02:42:42.328Z,0.00
2024-04-13T02:43:42.243Z,0.00
2024-04-13T02:44:42.234Z,0.00
2024-04-13T02:45:42.234Z,0.00
2024-04-13T02:46:42.196Z,0.00
2024-04-13T02:47:42.361Z,0.00
2024-04-13T02:48:42.267Z,0.00
2024-04-13T02:49:42.163Z,0.00
2024-04-13T02:50:42.156Z,0.00
2024-04-13T02:51:42.177Z,0.00
2024-04-13T02:52:42.126Z,0.00
2024-04-13T02:53:42.106Z,0.00
2024-04-13T02:54:42.193Z,0.00
2024-04-13T02:55:42.104Z,0.00
2024-04-13T02:56:42.077Z,0.00
2024-04-13T02:57:42.082Z,0.00
2024-04-13T02:58:42.045Z,0.00
2024-04-13T02:59:42.030Z,0.00
2024-04-13T03:00:42.080Z,0.00
2024-04-13T03:01:42.004Z,0.00
2024-04-13T03:02:42.022Z,0.00
2024-04-13T03:03:42.075Z,0.00
2024-04-13T03:04:41.965Z,0.00
2024-04-13T03:05:41.956Z,0.00
2024-04-13T03:06:41.984Z,0.00
2024-04-13T03:07:41.923Z,0.00
2024-04-13T03:08:41.911Z,0.00
2024-04-13T03:09:41.942Z,0.00
2024-04-13T03:10:41.885Z,0.00
2024-04-13T03:11:41.892Z,0.00
2024-04-13T03:12:41.899Z,0.00
2024-04-13T03:13:41.858Z,0.00
2024-04-13T03:14:41.839Z,0.00
2024-04-13T03:15:41.849Z,0.00
2024-04-13T03:16:41.837Z,0.00
2024-04-13T03:17:41.820Z,0.00
2024-04-13T03:18:41.835Z,0.00
2024-04-13T03:19:41.773Z,0.00
2024-04-13T03:20:41.756Z,0.00
2024-04-13T03:21:41.820Z,0.00
2024-04-13T03:22:41.751Z,0.00
2024-04-13T03:23:41.750Z,0.00
2024-04-13T03:24:41.751Z,0.00
2024-04-13T03:25:41.696Z,0.00
2024-04-13T03:26:41.682Z,0.00
2024-04-13T03:27:41.730Z,0.00
2024-04-13T03:28:41.662Z,0.00
2024-04-13T03:29:41.639Z,0.00
2024-04-13T03:30:41.650Z,0.00
2024-04-13T03:31:41.614Z,0.00
2024-04-13T03:32:41.642Z,0.00
2024-04-13T03:33:41.668Z,0.00
2024-04-13T03:34:41.601Z,0.00
2024-04-13T03:35:41.581Z,0.00
2024-04-13T03:36:41.588Z,0.00
2024-04-13T03:37:41.543Z,0.00
2024-04-13T03:38:41.540Z,0.00
2024-04-13T03:39:41.556Z,0.00
2024-04-13T03:40:41.509Z,0.00
2024-04-13T03:41:41.485Z,0.00
2024-04-13T03:42:41.515Z,0.00
2024-04-13T03:43:41.469Z,0.00
2024-04-13T03:44:41.449Z,0.00
2024-04-13T03:45:41.496Z,0.00
2024-04-13T03:46:41.417Z,0.00
2024-04-13T03:47:41.484Z,0.00
2024-04-13T03:48:41.474Z,0.00
2024-04-13T03:49:41.382Z,0.00
2024-04-13T03:50:41.395Z,0.00
2024-04-13T03:51:41.417Z,0.00
2024-04-13T03:52:41.350Z,0.00
2024-04-13T03:53:41.331Z,0.00
2024-04-13T03:54:41.376Z,0.00
2024-04-13T03:55:41.302Z,0.00
2024-04-13T03:56:41.286Z,0.00
2024-04-13T03:57:41.331Z,0.00
2024-04-13T03:58:41.258Z,0.00
2024-04-13T03:59:41.255Z,0.00
2024-04-13T04:00:41.308Z,0.00
2024-04-13T04:01:41.271Z,0.00
2024-04-13T04:02:41.216Z,0.00
2024-04-13T04:03:41.282Z,0.00
2024-04-13T04:04:41.247Z,0.00
2024-04-13T04:05:41.169Z,0.00
2024-04-13T04:06:41.186Z,0.00
2024-04-13T04:07:41.147Z,0.00
2024-04-13T04:08:41.132Z,0.00
2024-04-13T04:09:41.134Z,0.00
2024-04-13T04:10:41.120Z,0.00
2024-04-13T04:11:41.099Z,0.00
2024-04-13T04:12:41.176Z,0.00
2024-04-13T04:13:41.077Z,0.00
2024-04-13T04:14:43.226Z,4.00
2024-04-13T04:15:41.092Z,4.00
2024-04-13T04:16:41.022Z,0.00
2024-04-13T04:17:41.204Z,4.00
2024-04-13T04:18:41.164Z,0.00
2024-04-13T04:19:40.986Z,4.00
2024-04-13T04:20:40.996Z,4.00
2024-04-13T04:21:41.024Z,4.00
2024-04-13T04:22:40.942Z,8.00
2024-04-13T04:23:40.938Z,8.00
2024-04-13T04:24:40.960Z,8.00
2024-04-13T04:25:40.904Z,8.00
2024-04-13T04:26:40.910Z,16.00
2024-04-13T04:27:40.960Z,16.00
2024-04-13T04:28:40.862Z,16.00
2024-04-13T04:29:40.905Z,20.00
2024-04-13T04:30:40.943Z,24.00
2024-04-13T04:31:40.827Z,28.00
2024-04-13T04:32:40.842Z,32.00
2024-04-13T04:33:41.031Z,32.00
2024-04-13T04:34:40.780Z,36.00
2024-04-13T04:35:40.771Z,40.00
2024-04-13T04:36:40.790Z,44.00
2024-04-13T04:37:40.746Z,52.00
2024-04-13T04:38:40.735Z,60.00
2024-04-13T04:39:40.800Z,64.00
2024-04-13T04:40:40.713Z,72.00
2024-04-13T04:41:40.693Z,80.00
2024-04-13T04:42:40.760Z,96.00
2024-04-13T04:43:40.674Z,104.00
2024-04-13T04:44:40.650Z,120.00
2024-04-13T04:45:40.742Z,140.00
2024-04-13T04:46:42.273Z,160.00
2024-04-13T04:47:40.693Z,180.00
2024-04-13T04:48:40.903Z,196.00
2024-04-13T04:49:40.586Z,212.00
2024-04-13T04:50:40.570Z,232.00
2024-04-13T04:51:40.643Z,248.00
2024-04-13T04:52:43.418Z,272.00
2024-04-13T04:53:40.532Z,296.00
2024-04-13T04:54:40.569Z,316.00
2024-04-13T04:55:40.507Z,336.00
2024-04-13T04:56:40.543Z,356.00
2024-04-13T04:57:40.485Z,372.00
2024-04-13T04:58:40.503Z,388.00
2024-04-13T04:59:40.450Z,404.00
2024-04-13T05:00:40.641Z,420.00
2024-04-13T05:01:40.424Z,432.00
2024-04-13T05:02:40.475Z,436.00
2024-04-13T05:03:40.508Z,448.00
2024-04-13T05:04:40.392Z,464.00
2024-04-13T05:05:40.406Z,472.00
2024-04-13T05:06:40.399Z,488.00
2024-04-13T05:07:40.384Z,504.00
2024-04-13T05:08:40.339Z,524.00
2024-04-13T05:09:40.403Z,552.00
2024-04-13T05:10:40.321Z,588.00
2024-04-13T05:11:40.294Z,600.00
2024-04-13T05:12:40.326Z,600.00
2024-04-13T05:13:40.263Z,608.00
2024-04-13T05:14:40.268Z,624.00
2024-04-13T05:15:40.374Z,632.00
2024-04-13T05:16:40.232Z,640.00
2024-04-13T05:17:40.284Z,652.00
2024-04-13T05:18:40.456Z,668.00
2024-04-13T05:19:40.413Z,692.00
2024-04-13T05:20:40.202Z,732.00
2024-04-13T05:21:40.244Z,788.00
2024-04-13T05:22:40.351Z,880.00
2024-04-13T05:23:40.133Z,1000.00
2024-04-13T05:24:40.268Z,1044.00
2024-04-13T05:25:40.105Z,1116.00
2024-04-13T05:26:40.097Z,1292.00
2024-04-13T05:27:40.210Z,1472.00
2024-04-13T05:28:40.072Z,1624.00
2024-04-13T05:29:40.057Z,1712.00
2024-04-13T05:30:40.231Z,1764.00
2024-04-13T05:31:40.028Z,1800.00
2024-04-13T05:32:40.085Z,1816.00
2024-04-13T05:33:40.310Z,1804.00
2024-04-13T05:34:40.000Z,1888.00
2024-04-13T05:35:39.978Z,1832.00
2024-04-13T05:36:40.095Z,1760.00
2024-04-13T05:37:39.951Z,1944.00
2024-04-13T05:38:39.946Z,1996.00
2024-04-13T05:39:40.047Z,1968.00
2024-04-13T05:40:39.916Z,2016.00
2024-04-13T05:41:39.914Z,2060.00
2024-04-13T05:42:39.963Z,2044.00
2024-04-13T05:43:39.873Z,2036.00
2024-04-13T05:44:39.874Z,2004.00
2024-04-13T05:45:40.063Z,2080.00
2024-04-13T05:46:39.863Z,2120.00
2024-04-13T05:47:39.836Z,2112.00
2024-04-13T05:48:39.846Z,2112.00
2024-04-13T05:49:39.836Z,2116.00
2024-04-13T05:50:39.797Z,2140.00
2024-04-13T05:51:39.799Z,2064.00
2024-04-13T05:52:39.768Z,2024.00
2024-04-13T05:53:39.765Z,2116.00
2024-04-13T05:54:39.871Z,2112.00
2024-04-13T05:55:39.743Z,2064.00
2024-04-13T05:56:39.722Z,2056.00
2024-04-13T05:57:39.755Z,2076.00
2024-04-13T05:58:39.692Z,2116.00
2024-04-13T05:59:39.682Z,2128.00
2024-04-13T06:00:39.785Z,2144.00
2024-04-13T06:01:39.683Z,2152.00
2024-04-13T06:02:39.729Z,2208.00
2024-04-13T06:03:39.648Z,2204.00
2024-04-13T06:04:39.681Z,2220.00
2024-04-13T06:05:42.398Z,2220.00
2024-04-13T06:06:39.656Z,2240.00
2024-04-13T06:07:39.585Z,2256.00
2024-04-13T06:08:39.584Z,2264.00
2024-04-13T06:09:39.620Z,2280.00
2024-04-13T06:10:39.550Z,2288.00
2024-04-13T06:11:39.535Z,2288.00
2024-04-13T06:12:39.609Z,2244.00
2024-04-13T06:13:39.522Z,2212.00
2024-04-13T06:14:39.515Z,2276.00
2024-04-13T06:15:39.557Z,2304.00
2024-04-13T06:16:39.515Z,2328.00
2024-04-13T06:17:39.527Z,2344.00
2024-04-13T06:18:39.515Z,2336.00
2024-04-13T06:19:39.466Z,2328.00
2024-04-13T06:20:39.436Z,2320.00
2024-04-13T06:21:39.475Z,2324.00
2024-04-13T06:22:39.415Z,2312.00
2024-04-13T06:23:39.555Z,2328.00
2024-04-13T06:24:39.460Z,2332.00
2024-04-13T06:25:39.393Z,2336.00
2024-04-13T06:26:39.377Z,2308.00
2024-04-13T06:27:39.491Z,2216.00
2024-04-13T06:28:39.367Z,2228.00
2024-04-13T06:29:39.333Z,2264.00
2024-04-13T06:30:39.374Z,2240.00
2024-04-13T06:31:39.314Z,2224.00
2024-04-13T06:32:39.365Z,2256.00
2024-04-13T06:33:39.410Z,2288.00
2024-04-13T06:34:39.297Z,2288.00
2024-04-13T06:35:39.276Z,2284.00
2024-04-13T06:36:41.681Z,2284.00
2024-04-13T06:37:39.250Z,2260.00
2024-04-13T06:38:39.237Z,2272.00
2024-04-13T06:39:39.245Z,2264.00
2024-04-13T06:40:39.214Z,2264.00
2024-04-13T06:41:39.250Z,2216.00
2024-04-13T06:42:39.240Z,2064.00
2024-04-13T06:43:39.194Z,2244.00
2024-04-13T06:44:39.172Z,2240.00
2024-04-13T06:45:39.229Z,2236.00
2024-04-13T06:46:39.202Z,2160.00
2024-04-13T06:47:39.160Z,2132.00
2024-04-13T06:48:39.165Z,2152.00
2024-04-13T06:49:39.115Z,2120.00
2024-04-13T06:50:39.119Z,2120.00
2024-04-13T06:51:39.107Z,2152.00
2024-04-13T06:52:39.092Z,2148.00
2024-04-13T06:53:39.072Z,2204.00
2024-04-13T06:54:40.848Z,2208.00
2024-04-13T06:55:39.053Z,2208.00
2024-04-13T06:56:39.049Z,2208.00
2024-04-13T06:57:39.066Z,2208.00
2024-04-13T06:58:39.022Z,2204.00
2024-04-13T06:59:39.010Z,2200.00
2024-04-13T07:00:39.046Z,2200.00
2024-04-13T07:01:39.051Z,2196.00
2024-04-13T07:02:39.017Z,2192.00
2024-04-13T07:03:39.058Z,2184.00
2024-04-13T07:04:39.020Z,2188.00
2024-04-13T07:05:38.959Z,2192.00
2024-04-13T07:06:38.963Z,2188.00
2024-04-13T07:07:38.931Z,2196.00
2024-04-13T07:08:44.122Z,2192.00
2024-04-13T07:09:38.950Z,2192.00
2024-04-13T07:10:38.936Z,2188.00
2024-04-13T07:11:38.901Z,2188.00
2024-04-13T07:12:38.918Z,2184.00
2024-04-13T07:13:38.871Z,2180.00
2024-04-13T07:14:38.863Z,2176.00
2024-04-13T07:15:38.868Z,2172.00
2024-04-13T07:16:38.889Z,2128.00
2024-04-13T07:17:38.854Z,2156.00
2024-04-13T07:18:38.888Z,2124.00
2024-04-13T07:19:38.810Z,2140.00
2024-04-13T07:20:38.807Z,2140.00
2024-04-13T07:21:38.815Z,2120.00
2024-04-13T07:22:38.806Z,2140.00
2024-04-13T07:23:38.788Z,2104.00
2024-04-13T07:24:38.822Z,2116.00
2024-04-13T07:25:38.760Z,2092.00
2024-04-13T07:26:38.754Z,2120.00
2024-04-13T07:27:38.796Z,2132.00
2024-04-13T07:28:38.937Z,2124.00
2024-04-13T07:29:38.719Z,2136.00
2024-04-13T07:30:38.762Z,2156.00
2024-04-13T07:31:38.699Z,2180.00
2024-04-13T07:32:38.853Z,2172.00
2024-04-13T07:33:38.858Z,2196.00
2024-04-13T07:34:38.677Z,2192.00
2024-04-13T07:35:38.666Z,2204.00
2024-04-13T07:36:38.672Z,2188.00
2024-04-13T07:37:38.640Z,2204.00
2024-04-13T07:38:38.770Z,2156.00
2024-04-13T07:39:38.652Z,2164.00
2024-04-13T07:40:38.771Z,2144.00
2024-04-13T07:41:38.607Z,2136.00
2024-04-13T07:42:38.627Z,2152.00
2024-04-13T07:43:38.639Z,2148.00
2024-04-13T07:44:41.274Z,2168.00
2024-04-13T07:45:38.612Z,2128.00
2024-04-13T07:46:38.568Z,2172.00
2024-04-13T07:47:38.577Z,2196.00
2024-04-13T07:48:38.626Z,2208.00
2024-04-13T07:49:38.539Z,2188.00
2024-04-13T07:50:38.533Z,2184.00
2024-04-13T07:51:38.557Z,2184.00
2024-04-13T07:52:38.527Z,2212.00
2024-04-13T07:53:38.501Z,2204.00
2024-04-13T07:54:38.526Z,2168.00
2024-04-13T07:55:38.484Z,2200.00
2024-04-13T07:56:38.485Z,2200.00
2024-04-13T07:57:38.484Z,2204.00
2024-04-13T07:58:38.463Z,2208.00
2024-04-13T07:59:38.453Z,2196.00
2024-04-13T08:00:38.511Z,2188.00
2024-04-13T08:01:38.499Z,2168.00
2024-04-13T08:02:38.440Z,2140.00
2024-04-13T08:03:38.636Z,2140.00
2024-04-13T08:04:40.881Z,2164.00
2024-04-13T08:05:38.414Z,2148.00
2024-04-13T08:06:38.484Z,2152.00
2024-04-13T08:07:38.385Z,2164.00
2024-04-13T08:08:38.391Z,2188.00
2024-04-13T08:09:38.422Z,2204.00
2024-04-13T08:10:38.381Z,2224.00
2024-04-13T08:11:38.353Z,2176.00
2024-04-13T08:12:38.391Z,2140.00
2024-04-13T08:13:38.335Z,2164.00
2024-04-13T08:14:38.334Z,2176.00
2024-04-13T08:15:38.337Z,2208.00
2024-04-13T08:16:38.367Z,2228.00
2024-04-13T08:17:38.324Z,2220.00
2024-04-13T08:18:38.329Z,2232.00
2024-04-13T08:19:38.289Z,2248.00
2024-04-13T08:20:38.286Z,2228.00
2024-04-13T08:21:38.348Z,2232.00
2024-04-13T08:22:38.269Z,2232.00
2024-04-13T08:23:38.288Z,2212.00
2024-04-13T08:24:38.335Z,2180.00
2024-04-13T08:25:38.253Z,2100.00
2024-04-13T08:26:38.276Z,2060.00
2024-04-13T08:27:38.268Z,2160.00
2024-04-13T08:28:38.256Z,2160.00
2024-04-13T08:29:38.221Z,2192.00
2024-04-13T08:30:38.301Z,2196.00
2024-04-13T08:31:38.267Z,2244.00
2024-04-13T08:32:38.203Z,2256.00
2024-04-13T08:33:38.293Z,2212.00
2024-04-13T08:34:38.185Z,2264.00
2024-04-13T08:35:38.177Z,2252.00
2024-04-13T08:36:38.202Z,2188.00
2024-04-13T08:37:38.154Z,2188.00
2024-04-13T08:38:38.230Z,2128.00
2024-04-13T08:39:38.157Z,2168.00
2024-04-13T08:40:38.339Z,2204.00
2024-04-13T08:41:38.138Z,2232.00
2024-04-13T08:42:38.163Z,2232.00
2024-04-13T08:43:38.162Z,2224.00
2024-04-13T08:44:38.113Z,2196.00
2024-04-13T08:45:38.142Z,2256.00
2024-04-13T08:46:38.092Z,2272.00
2024-04-13T08:47:38.179Z,2256.00
2024-04-13T08:48:38.187Z,2312.00
2024-04-13T08:49:38.114Z,2344.00
2024-04-13T08:50:38.064Z,2324.00
2024-04-13T08:51:38.075Z,2288.00
2024-04-13T08:52:38.051Z,2308.00
2024-04-13T08:53:38.041Z,2296.00
2024-04-13T08:54:38.058Z,2284.00
2024-04-13T08:55:38.027Z,2232.00
2024-04-13T08:56:38.035Z,2228.00
2024-04-13T08:57:38.093Z,2224.00
2024-04-13T08:58:38.199Z,2184.00
2024-04-13T08:59:37.999Z,2240.00
2024-04-13T09:00:38.045Z,2272.00
2024-04-13T09:01:38.051Z,2296.00
2024-04-13T09:02:37.979Z,2320.00
2024-04-13T09:03:38.086Z,2324.00
2024-04-13T09:04:37.977Z,2352.00
2024-04-13T09:05:37.968Z,2348.00
2024-04-13T09:06:38.006Z,2356.00
2024-04-13T09:07:37.945Z,2340.00
2024-04-13T09:08:37.942Z,2324.00
2024-04-13T09:09:37.940Z,2284.00
2024-04-13T09:10:37.927Z,2292.00
2024-04-13T09:11:37.947Z,2300.00
2024-04-13T09:12:37.939Z,2316.00
2024-04-13T09:13:41.700Z,2300.00
2024-04-13T09:14:37.919Z,2296.00
2024-04-13T09:15:37.947Z,2324.00
2024-04-13T09:16:37.892Z,2344.00
2024-04-13T09:17:38.014Z,2336.00
2024-04-13T09:18:38.070Z,2324.00
2024-04-13T09:19:37.867Z,2328.00
2024-04-13T09:20:37.860Z,2360.00
2024-04-13T09:21:37.938Z,2452.00
2024-04-13T09:22:37.843Z,2472.00
2024-04-13T09:23:37.839Z,2444.00
2024-04-13T09:24:37.852Z,2412.00
2024-04-13T09:25:37.831Z,2400.00
2024-04-13T09:26:37.827Z,2380.00
2024-04-13T09:27:37.876Z,2372.00
2024-04-13T09:28:37.810Z,2376.00
2024-04-13T09:29:37.817Z,2420.00
2024-04-13T09:30:37.888Z,2412.00
2024-04-13T09:31:37.791Z,2404.00
2024-04-13T09:32:37.981Z,2352.00
2024-04-13T09:33:37.838Z,2340.00
2024-04-13T09:34:37.767Z,2400.00
2024-04-13T09:35:37.780Z,2376.00
2024-04-13T09:36:40.104Z,2388.00
2024-04-13T09:37:37.752Z,2396.00
2024-04-13T09:38:37.759Z,2312.00
2024-04-13T09:39:37.774Z,2352.00
2024-04-13T09:40:37.732Z,2348.00
2024-04-13T09:41:37.728Z,2600.00
2024-04-13T09:42:37.763Z,2572.00
2024-04-13T09:43:37.726Z,2588.00
2024-04-13T09:44:37.712Z,2556.00
2024-04-13T09:45:37.747Z,2568.00
2024-04-13T09:46:37.723Z,2612.00
2024-04-13T09:47:37.782Z,2656.00
2024-04-13T09:48:37.863Z,2612.00
2024-04-13T09:49:37.714Z,2596.00
2024-04-13T09:50:37.690Z,2580.00
2024-04-13T09:51:37.685Z,2560.00
2024-04-13T09:52:37.665Z,2556.00
2024-04-13T09:53:37.665Z,2492.00
2024-04-13T09:54:37.734Z,2544.00
2024-04-13T09:55:37.649Z,2680.00
2024-04-13T09:56:37.643Z,2656.00
2024-04-13T09:57:37.713Z,2660.00
2024-04-13T09:58:37.640Z,2688.00
2024-04-13T09:59:37.635Z,2680.00
2024-04-13T10:00:37.933Z,2720.00
2024-04-13T10:01:37.827Z,2800.00
2024-04-13T10:02:37.832Z,2904.00
2024-04-13T10:03:37.729Z,2864.00
2024-04-13T10:04:37.635Z,2856.00
2024-04-13T10:05:37.600Z,2896.00
2024-04-13T10:06:37.650Z,2912.00
2024-04-13T10:07:37.605Z,2836.00
2024-04-13T10:08:37.582Z,2820.00
2024-04-13T10:09:37.604Z,2784.00
2024-04-13T10:10:37.574Z,2920.00
2024-04-13T10:11:37.631Z,2924.00
2024-04-13T10:12:37.828Z,2812.00
2024-04-13T10:13:37.583Z,2904.00
2024-04-13T10:14:37.553Z,2872.00
2024-04-13T10:15:37.642Z,2756.00
2024-04-13T10:16:37.576Z,2760.00
2024-04-13T10:17:37.617Z,2812.00
2024-04-13T10:18:37.691Z,2852.00
2024-04-13T10:19:37.590Z,2924.00
2024-04-13T10:20:37.580Z,2908.00
2024-04-13T10:21:37.668Z,2860.00
2024-04-13T10:22:38.709Z,2828.00
2024-04-13T10:23:37.537Z,2648.00
2024-04-13T10:24:37.540Z,2600.00
2024-04-13T10:25:37.532Z,2756.00
2024-04-13T10:26:37.517Z,2756.00
2024-04-13T10:27:37.673Z,2836.00
2024-04-13T10:28:37.521Z,2884.00
2024-04-13T10:29:37.519Z,2924.00
2024-04-13T10:30:37.550Z,2916.00
2024-04-13T10:31:37.521Z,2908.00
2024-04-13T10:32:37.525Z,2828.00
2024-04-13T10:33:37.544Z,2744.00
2024-04-13T10:34:37.504Z,2724.00
2024-04-13T10:35:37.492Z,2684.00
2024-04-13T10:36:37.686Z,2748.00
2024-04-13T10:37:37.490Z,2824.00
2024-04-13T10:38:37.502Z,2732.00
2024-04-13T10:39:37.486Z,2668.00
2024-04-13T10:40:37.470Z,2756.00
2024-04-13T10:41:37.450Z,2800.00
2024-04-13T10:42:37.490Z,2860.00
2024-04-13T10:43:37.449Z,2800.00
2024-04-13T10:45:37.509Z,2880.00
2024-04-13T10:46:37.444Z,2892.00
2024-04-13T10:47:37.491Z,2892.00
2024-04-13T10:48:37.493Z,2988.00
2024-04-13T10:49:39.912Z,3024.00
2024-04-13T10:50:37.536Z,3044.00
2024-04-13T10:51:37.452Z,2912.00
2024-04-13T10:52:37.436Z,2972.00
2024-04-13T10:53:37.430Z,3000.00
2024-04-13T10:54:37.498Z,3000.00
2024-04-13T10:55:37.427Z,2904.00
2024-04-13T10:56:37.424Z,2956.00
2024-04-13T10:57:37.461Z,2880.00
2024-04-13T10:58:37.416Z,2880.00
2024-04-13T10:59:37.407Z,2912.00
2024-04-13T11:00:37.441Z,2908.00
2024-04-13T11:02:37.411Z,2868.00
2024-04-13T11:03:37.462Z,2936.00
2024-04-13T11:04:37.405Z,2892.00
2024-04-13T11:05:37.387Z,2984.00
2024-04-13T11:06:37.413Z,2960.00
2024-04-13T11:07:37.401Z,2936.00
2024-04-13T11:08:37.367Z,2948.00
2024-04-13T11:09:37.435Z,2916.00
2024-04-13T11:10:37.361Z,2880.00
2024-04-13T11:11:37.386Z,2832.00
2024-04-13T11:12:37.385Z,2760.00
2024-04-13T11:13:37.355Z,2780.00
2024-04-13T11:14:37.359Z,2780.00
2024-04-13T11:15:37.427Z,2816.00
2024-04-13T11:16:37.375Z,2688.00
2024-04-13T11:17:37.438Z,2760.00
2024-04-13T11:18:37.604Z,2664.00
2024-04-13T11:19:37.372Z,2768.00
2024-04-13T11:20:37.333Z,2868.00
2024-04-13T11:21:37.407Z,2944.00
2024-04-13T11:22:37.337Z,2972.00
2024-04-13T11:23:37.322Z,2960.00
2024-04-13T11:24:37.387Z,3024.00
2024-04-13T11:25:37.321Z,3056.00
2024-04-13T11:26:37.318Z,3092.00
2024-04-13T11:27:37.387Z,3088.00
2024-04-13T11:28:37.342Z,3104.00
2024-04-13T11:29:37.300Z,3076.00
2024-04-13T11:30:37.322Z,3152.00
2024-04-13T11:31:37.333Z,3140.00
2024-04-13T11:32:37.332Z,3184.00
2024-04-13T11:33:37.329Z,3168.00
2024-04-13T11:34:37.298Z,3092.00
2024-04-13T11:35:37.307Z,3132.00
2024-04-13T11:36:37.348Z,3092.00
2024-04-13T11:37:37.283Z,3140.00
2024-04-13T11:38:37.292Z,3128.00
2024-04-13T11:39:37.328Z,3112.00
2024-04-13T11:40:37.287Z,3064.00
2024-04-13T11:41:37.277Z,3096.00
2024-04-13T11:42:45.583Z,3036.00
2024-04-13T11:43:37.293Z,3132.00
2024-04-13T11:44:37.277Z,3168.00
2024-04-13T11:45:40.077Z,3100.00
2024-04-13T11:46:37.258Z,3160.00
2024-04-13T11:47:37.464Z,3284.00
2024-04-13T11:48:37.350Z,3360.00
2024-04-13T11:49:40.659Z,3336.00
2024-04-13T11:50:37.267Z,3232.00
2024-04-13T11:51:37.372Z,3272.00
2024-04-13T11:52:37.252Z,3216.00
2024-04-13T11:53:37.259Z,3008.00
2024-04-13T11:54:37.311Z,3064.00
2024-04-13T11:55:39.258Z,3188.00
2024-04-13T11:56:37.246Z,3192.00
2024-04-13T11:57:37.295Z,3188.00
2024-04-13T11:58:37.246Z,3160.00
2024-04-13T11:59:37.235Z,3276.00
2024-04-13T12:00:37.314Z,3228.00
2024-04-13T12:01:37.263Z,3244.00
2024-04-13T12:02:37.332Z,3288.00
2024-04-13T12:03:37.279Z,3276.00
2024-04-13T12:04:37.270Z,3296.00
2024-04-13T12:05:37.227Z,3188.00
2024-04-13T12:06:37.248Z,3152.00
2024-04-13T12:07:37.223Z,3140.00
2024-04-13T12:08:37.225Z,3192.00
2024-04-13T12:09:37.473Z,3240.00
2024-04-13T12:10:37.222Z,3136.00
2024-04-13T12:11:37.273Z,3132.00
2024-04-13T12:12:37.254Z,3080.00
2024-04-13T12:13:37.216Z,3172.00
2024-04-13T12:14:46.745Z,3168.00
2024-04-13T12:15:37.248Z,3252.00
2024-04-13T12:16:37.216Z,3272.00
2024-04-13T12:17:37.328Z,3272.00
2024-04-13T12:18:37.431Z,3312.00
2024-04-13T12:19:37.204Z,3260.00
2024-04-13T12:20:37.201Z,3104.00
2024-04-13T12:21:37.217Z,3184.00
2024-04-13T12:22:37.209Z,3004.00
2024-04-13T12:23:37.211Z,3040.00
2024-04-13T12:24:37.315Z,3024.00
2024-04-13T12:25:37.232Z,3008.00
2024-04-13T12:26:37.206Z,2908.00
2024-04-13T12:27:37.280Z,2900.00
2024-04-13T12:29:37.245Z,2816.00
2024-04-13T12:30:37.231Z,2832.00
2024-04-13T12:31:37.184Z,2844.00
2024-04-13T12:32:37.251Z,2940.00
2024-04-13T12:33:37.295Z,3000.00
2024-04-13T12:34:37.213Z,2928.00
2024-04-13T12:35:37.189Z,2768.00